TimePST,TemperatureF,Dew PointF,Humidity,Sea Level PressureIn,VisibilityMPH,Wind Direction,Wind SpeedMPH,Gust SpeedMPH,PrecipitationIn,Events,Conditions,WindDirDegrees,DateUTC
12:00 AM,17.6,17.6,100,30.34,1.0,Calm,Calm,-,N/A,,Mist,0,2013-01-18 08:00:00
12:16 AM,17.6,17.6,100,30.33,0.5,Calm,Calm,-,N/A,Fog,Light Freezing Fog,0,2013-01-18 08:16:00
12:53 AM,17.1,16.0,96,30.44,0.2,Calm,Calm,-,N/A,Fog,Light Freezing Fog,0,2013-01-18 08:53:00
1:53 AM,17.1,15.1,92,30.43,0.2,Calm,Calm,-,N/A,Fog,Light Freezing Fog,0,2013-01-18 09:53:00
2:17 AM,15.8,14.0,93,30.34,2.5,Calm,Calm,-,N/A,,Overcast,0,2013-01-18 10:17:00
2:24 AM,15.8,14.0,93,30.34,4.0,Calm,Calm,-,N/A,,Overcast,0,2013-01-18 10:24:00
2:35 AM,17.6,14.0,86,30.33,5.0,Calm,Calm,-,N/A,,Overcast,0,2013-01-18 10:35:00
2:44 AM,17.6,14.0,86,30.33,5.0,Calm,Calm,-,N/A,,Overcast,0,2013-01-18 10:44:00
2:53 AM,17.1,14.0,88,30.43,6.0,Calm,Calm,-,N/A,,Overcast,0,2013-01-18 10:53:00
3:35 AM,15.8,14.0,93,30.32,6.0,Calm,Calm,-,N/A,,Scattered Clouds,0,2013-01-18 11:35:00
3:49 AM,15.8,12.2,86,30.32,6.0,Calm,Calm,-,N/A,,Mostly Cloudy,0,2013-01-18 11:49:00
3:53 AM,16.0,12.9,88,30.42,6.0,Calm,Calm,-,N/A,,Mostly Cloudy,0,2013-01-18 11:53:00
4:23 AM,15.8,12.2,86,30.30,6.0,Calm,Calm,-,N/A,,Overcast,0,2013-01-18 12:23:00
4:49 AM,15.8,12.2,86,30.30,6.0,Calm,Calm,-,N/A,,Partly Cloudy,0,2013-01-18 12:49:00
4:53 AM,15.1,12.9,91,30.40,6.0,Calm,Calm,-,N/A,,Partly Cloudy,0,2013-01-18 12:53:00
5:44 AM,15.8,12.2,86,30.28,6.0,WNW,3.5,-,N/A,,Mostly Cloudy,300,2013-01-18 13:44:00
5:53 AM,16.0,12.9,88,30.39,6.0,NNW,3.5,-,N/A,,Mostly Cloudy,330,2013-01-18 13:53:00
6:18 AM,15.8,12.2,86,30.28,5.0,NW,3.5,-,N/A,,Scattered Clouds,310,2013-01-18 14:18:00
6:53 AM,16.0,14.0,92,30.38,6.0,Calm,Calm,-,N/A,,Clear,0,2013-01-18 14:53:00
7:53 AM,17.1,14.0,88,30.38,6.0,Calm,Calm,-,N/A,,Clear,0,2013-01-18 15:53:00
8:53 AM,17.1,15.1,92,30.39,6.0,Calm,Calm,-,N/A,,Clear,0,2013-01-18 16:53:00
9:53 AM,18.0,16.0,92,30.39,7.0,Calm,Calm,-,N/A,,Clear,0,2013-01-18 17:53:00
10:53 AM,19.9,19.0,96,30.38,5.0,Calm,Calm,-,N/A,,Clear,0,2013-01-18 18:53:00
11:53 AM,19.0,18.0,96,30.37,6.0,Calm,Calm,-,N/A,,Clear,0,2013-01-18 19:53:00
12:53 PM,21.9,21.0,96,30.35,6.0,Calm,Calm,-,N/A,,Partly Cloudy,0,2013-01-18 20:53:00
1:53 PM,21.9,19.0,89,30.33,6.0,West,3.5,-,N/A,,Clear,280,2013-01-18 21:53:00
2:27 PM,19.4,17.6,93,30.24,2.0,Calm,Calm,-,N/A,,Clear,0,2013-01-18 22:27:00
2:40 PM,23.0,21.2,93,30.24,5.0,Calm,Calm,-,N/A,,Clear,0,2013-01-18 22:40:00
2:53 PM,21.9,19.9,92,30.34,4.0,Calm,Calm,-,N/A,,Clear,0,2013-01-18 22:53:00
3:03 PM,21.2,19.4,93,30.24,1.8,Calm,Calm,-,N/A,,Clear,0,2013-01-18 23:03:00
3:53 PM,19.0,18.0,96,30.36,0.8,Calm,Calm,-,N/A,,Clear,0,2013-01-18 23:53:00
4:07 PM,17.6,15.8,93,30.25,0.2,Calm,Calm,-,N/A,Fog,Light Freezing Fog,0,2013-01-19 00:07:00
4:53 PM,12.0,12.0,100,30.38,0.2,Calm,Calm,-,N/A,Fog,Light Freezing Fog,0,2013-01-19 00:53:00
5:01 PM,12.2,12.2,100,30.26,0.2,WNW,3.5,-,N/A,Fog,Light Freezing Fog,290,2013-01-19 01:01:00
5:50 PM,12.2,10.4,92,30.26,1.5,NE,4.6,-,N/A,,Partly Cloudy,50,2013-01-19 01:50:00
5:53 PM,12.0,10.0,92,30.39,3.0,ENE,3.5,-,N/A,,Partly Cloudy,60,2013-01-19 01:53:00
6:22 PM,8.6,5.0,85,30.26,2.5,NW,3.5,-,N/A,,Partly Cloudy,320,2013-01-19 02:22:00
6:29 PM,8.6,5.0,85,30.26,6.0,Calm,Calm,-,N/A,,Partly Cloudy,0,2013-01-19 02:29:00
6:53 PM,10.0,7.0,87,30.40,5.0,Calm,Calm,-,N/A,,Clear,0,2013-01-19 02:53:00
7:53 PM,9.0,6.1,88,30.40,6.0,Calm,Calm,-,N/A,,Clear,0,2013-01-19 03:53:00
8:53 PM,7.0,3.9,87,30.41,8.0,Calm,Calm,-,N/A,,Clear,0,2013-01-19 04:53:00
9:53 PM,3.9,1.0,88,30.43,10.0,NNW,3.5,-,N/A,,Clear,330,2013-01-19 05:53:00
10:53 PM,7.0,3.9,87,30.43,9.0,Calm,Calm,-,N/A,,Clear,0,2013-01-19 06:53:00
11:53 PM,7.0,3.9,87,30.45,9.0,NW,3.5,-,N/A,,Clear,310,2013-01-19 07:53:00